Time;durP1;ratioP1;P1;durP2;ratioP2;P2;SDS_P1;SDS_P2;PMS_P1;PMS_P2;Temp;Humidity;BMP_temperature;BMP_pressure;BME280_temperature;BME280_humidity;BME280_pressure;Samples;Min_cycle;Max_cycle;Signal;HPM_P1;HPM_P2
2023/12/24 00:00:09;;;;;;;2.58;1.00;;;;;;;;;;5054755;28;20079;-71
2023/12/24 00:02:35;;;;;;;4.25;1.02;;;;;;;;;;5055054;28;20070;-71
2023/12/24 00:05:00;;;;;;;4.05;1.40;;;;;;;;;;5055084;28;20104;-71
2023/12/24 00:07:26;;;;;;;3.53;1.42;;;;;;;;;;5054739;28;20509;-71
2023/12/24 00:09:51;;;;;;;3.95;1.40;;;;;;;;;;5055020;28;20033;-71
2023/12/24 00:12:16;;;;;;;2.78;1.15;;;;;;;;;;5054731;28;20021;-71
2023/12/24 00:14:42;;;;;;;2.92;1.30;;;;;;;;;;5054434;28;20431;-71
2023/12/24 00:17:07;;;;;;;3.17;1.27;;;;;;;;;;5053562;28;20052;-71
2023/12/24 00:19:33;;;;;;;5.00;1.30;;;;;;;;;;5054695;28;20103;-71
2023/12/24 00:21:58;;;;;;;3.40;1.40;;;;;;;;;;5054706;28;20017;-71
2023/12/24 00:24:23;;;;;;;6.63;1.10;;;;;;;;;;5054807;28;20039;-71
2023/12/24 00:26:49;;;;;;;6.80;1.45;;;;;;;;;;5054800;28;20025;-71
2023/12/24 00:29:14;;;;;;;5.00;1.38;;;;;;;;;;5054457;28;20021;-71
2023/12/24 00:31:40;;;;;;;3.80;1.30;;;;;;;;;;5054373;28;20025;-71
2023/12/24 00:34:05;;;;;;;7.00;1.33;;;;;;;;;;5054527;28;20025;-71
2023/12/24 00:36:31;;;;;;;3.20;1.52;;;;;;;;;;5054507;28;20466;-72
2023/12/24 00:38:56;;;;;;;5.20;1.33;;;;;;;;;;5054437;28;20536;-71
2023/12/24 00:41:21;;;;;;;3.97;1.42;;;;;;;;;;5054332;28;20021;-71
2023/12/24 00:43:47;;;;;;;5.68;1.50;;;;;;;;;;5053021;28;20029;-71
2023/12/24 00:46:16;;;;;;;2.53;1.13;;;;;;;;;;5054305;28;20027;-71
2023/12/24 00:48:41;;;;;;;6.82;1.50;;;;;;;;;;5054054;28;20042;-71
2023/12/24 00:51:07;;;;;;;3.15;1.35;;;;;;;;;;5054201;28;20499;-71
2023/12/24 00:53:32;;;;;;;5.82;1.33;;;;;;;;;;5054029;28;20033;-71
2023/12/24 00:55:58;;;;;;;4.18;1.52;;;;;;;;;;5052812;28;20052;-71
2023/12/24 00:58:24;;;;;;;5.20;1.42;;;;;;;;;;5053825;28;20023;-71
2023/12/24 01:00:50;;;;;;;4.13;1.92;;;;;;;;;;5053788;28;20029;-71
2023/12/24 01:03:16;;;;;;;4.93;1.67;;;;;;;;;;5053964;28;20043;-71
2023/12/24 01:05:42;;;;;;;3.55;1.60;;;;;;;;;;5053842;28;20128;-71
2023/12/24 01:08:07;;;;;;;6.15;1.60;;;;;;;;;;5053769;28;20514;-71
2023/12/24 01:10:33;;;;;;;3.45;1.23;;;;;;;;;;5053852;28;20027;-71
2023/12/24 01:12:58;;;;;;;4.50;1.40;;;;;;;;;;5053558;28;20033;-72
2023/12/24 01:15:23;;;;;;;4.95;1.48;;;;;;;;;;5053496;28;20528;-71
2023/12/24 01:17:49;;;;;;;3.80;1.58;;;;;;;;;;5053675;28;20017;-71
2023/12/24 01:20:16;;;;;;;4.38;1.35;;;;;;;;;;5053692;28;20037;-71
2023/12/24 01:22:42;;;;;;;6.63;1.58;;;;;;;;;;5053560;28;20025;-71
2023/12/24 01:25:09;;;;;;;6.90;1.90;;;;;;;;;;5053644;28;20029;-71
2023/12/24 01:27:35;;;;;;;4.40;1.58;;;;;;;;;;5053246;28;20067;-71
2023/12/24 01:30:01;;;;;;;6.50;1.73;;;;;;;;;;5053437;28;20490;-71
2023/12/24 01:32:26;;;;;;;3.47;1.58;;;;;;;;;;5053344;28;20032;-71
2023/12/24 01:34:51;;;;;;;7.07;1.80;;;;;;;;;;5053505;28;20486;-71
2023/12/24 01:37:17;;;;;;;4.10;1.35;;;;;;;;;;5053472;28;20090;-71
2023/12/24 01:39:42;;;;;;;3.53;1.40;;;;;;;;;;5053308;28;20108;-71
2023/12/24 01:42:08;;;;;;;6.18;1.35;;;;;;;;;;5053065;28;20017;-71
2023/12/24 01:44:33;;;;;;;4.78;1.48;;;;;;;;;;5053170;28;20379;-71
2023/12/24 01:46:59;;;;;;;6.55;1.80;;;;;;;;;;5053070;28;20473;-71
2023/12/24 01:49:26;;;;;;;3.20;1.45;;;;;;;;;;5053106;28;20025;-71
2023/12/24 01:51:52;;;;;;;3.90;1.17;;;;;;;;;;5053007;28;20482;-71
2023/12/24 01:54:18;;;;;;;5.88;1.42;;;;;;;;;;5052746;28;20103;-71
2023/12/24 01:56:44;;;;;;;3.78;1.30;;;;;;;;;;5052773;28;20024;-71
2023/12/24 01:59:10;;;;;;;7.10;1.40;;;;;;;;;;5053002;28;20025;-71
2023/12/24 02:01:36;;;;;;;5.97;1.33;;;;;;;;;;5052916;28;20045;-71
2023/12/24 02:04:02;;;;;;;6.30;1.50;;;;;;;;;;5052918;28;20068;-71
2023/12/24 02:06:28;;;;;;;3.67;1.20;;;;;;;;;;5052805;28;20029;-71
2023/12/24 02:08:55;;;;;;;2.88;1.10;;;;;;;;;;5051486;28;20036;-71
2023/12/24 02:11:21;;;;;;;3.88;1.40;;;;;;;;;;5052392;28;20025;-71
2023/12/24 02:13:47;;;;;;;4.57;1.70;;;;;;;;;;5052919;28;20025;-71
2023/12/24 02:16:18;;;;;;;6.03;1.50;;;;;;;;;;5052565;28;20041;-71
2023/12/24 02:18:44;;;;;;;4.13;1.17;;;;;;;;;;5052742;28;20063;-71
2023/12/24 02:21:09;;;;;;;4.95;1.33;;;;;;;;;;5052596;28;20468;-71
2023/12/24 02:23:35;;;;;;;5.03;1.30;;;;;;;;;;5052436;28;20024;-71
2023/12/24 02:26:06;;;;;;;4.65;1.45;;;;;;;;;;5052576;28;20477;-71
2023/12/24 02:28:41;;;;;;;3.55;1.00;;;;;;;;;;5052500;28;20506;-71
2023/12/24 02:31:11;;;;;;;4.65;1.20;;;;;;;;;;5052399;28;20029;-71
2023/12/24 02:33:41;;;;;;;2.57;0.97;;;;;;;;;;5052303;28;20159;-71
2023/12/24 02:36:12;;;;;;;6.20;1.30;;;;;;;;;;5052547;28;20025;-71
2023/12/24 02:38:37;;;;;;;3.65;1.25;;;;;;;;;;5052527;28;20025;-71
2023/12/24 02:41:04;;;;;;;4.57;1.00;;;;;;;;;;5052269;28;20025;-71
2023/12/24 02:43:30;;;;;;;4.43;1.30;;;;;;;;;;5052376;28;20021;-71
2023/12/24 02:45:55;;;;;;;3.28;1.00;;;;;;;;;;5052372;28;20116;-71
2023/12/24 02:48:21;;;;;;;3.45;0.90;;;;;;;;;;5052218;28;20506;-71
2023/12/24 02:50:46;;;;;;;3.88;1.02;;;;;;;;;;5052264;28;20061;-71
2023/12/24 02:53:12;;;;;;;3.80;0.90;;;;;;;;;;5052321;28;20024;-71
2023/12/24 02:55:37;;;;;;;5.38;1.15;;;;;;;;;;5051879;28;20041;-71
2023/12/24 02:58:02;;;;;;;3.83;1.00;;;;;;;;;;5052161;28;20029;-71
2023/12/24 03:00:28;;;;;;;1.70;0.82;;;;;;;;;;5052181;28;20360;-71
2023/12/24 03:02:53;;;;;;;2.47;1.17;;;;;;;;;;5052135;28;20036;-71
2023/12/24 03:05:19;;;;;;;6.82;1.00;;;;;;;;;;5052219;28;20083;-71
2023/12/24 03:07:44;;;;;;;3.53;0.80;;;;;;;;;;5054342;28;20394;-71
2023/12/24 03:10:10;;;;;;;4.10;0.93;;;;;;;;;;5055939;28;20029;-71
2023/12/24 03:12:35;;;;;;;5.35;0.82;;;;;;;;;;5054612;28;20033;-71
2023/12/24 03:15:00;;;;;;;2.25;0.82;;;;;;;;;;5056066;28;20412;-71
2023/12/24 03:17:26;;;;;;;2.70;1.05;;;;;;;;;;5055915;28;20043;-71
2023/12/24 03:19:51;;;;;;;3.67;0.70;;;;;;;;;;5056069;28;20033;-71
2023/12/24 03:22:17;;;;;;;4.60;0.90;;;;;;;;;;5055863;28;20037;-71
2023/12/24 03:24:43;;;;;;;2.97;0.80;;;;;;;;;;5055747;28;20048;-71
2023/12/24 03:27:08;;;;;;;4.15;1.23;;;;;;;;;;5055917;28;20025;-71
2023/12/24 03:29:34;;;;;;;2.17;0.90;;;;;;;;;;5055767;28;20025;-71
2023/12/24 03:31:59;;;;;;;1.15;0.85;;;;;;;;;;5055578;28;20028;-71
2023/12/24 03:34:25;;;;;;;1.65;0.80;;;;;;;;;;5055715;28;20021;-70
2023/12/24 03:36:50;;;;;;;2.03;1.00;;;;;;;;;;5055764;28;20032;-71
2023/12/24 03:39:15;;;;;;;2.10;0.75;;;;;;;;;;5055505;28;20029;-71
2023/12/24 03:41:41;;;;;;;1.50;0.80;;;;;;;;;;5055483;28;20151;-71
2023/12/24 03:44:06;;;;;;;2.35;0.68;;;;;;;;;;5055551;28;20386;-71
2023/12/24 03:46:32;;;;;;;2.60;0.90;;;;;;;;;;5054320;28;20482;-71
2023/12/24 03:48:58;;;;;;;5.90;1.35;;;;;;;;;;5055291;28;20025;-71
2023/12/24 03:51:24;;;;;;;1.60;0.90;;;;;;;;;;5055197;28;20041;-71
2023/12/24 03:53:49;;;;;;;2.78;0.95;;;;;;;;;;5055057;28;20028;-71
2023/12/24 03:56:15;;;;;;;1.05;0.70;;;;;;;;;;5055476;28;20025;-71
2023/12/24 03:58:40;;;;;;;1.75;0.82;;;;;;;;;;5055150;28;20020;-71
2023/12/24 04:01:09;;;;;;;4.53;0.80;;;;;;;;;;5053834;28;20467;-71
2023/12/24 04:03:38;;;;;;;0.57;0.57;;;;;;;;;;5055133;28;20029;-71
2023/12/24 04:06:15;;;;;;;1.60;0.63;;;;;;;;;;5054934;28;20036;-71
2023/12/24 04:08:40;;;;;;;2.97;0.73;;;;;;;;;;5055061;28;20025;-71
2023/12/24 04:11:12;;;;;;;2.05;0.70;;;;;;;;;;5055207;28;20031;-71
2023/12/24 04:13:38;;;;;;;3.30;0.82;;;;;;;;;;5054941;28;20438;-71
2023/12/24 04:16:04;;;;;;;1.00;0.75;;;;;;;;;;5054895;28;20065;-71
2023/12/24 04:18:29;;;;;;;0.85;0.70;;;;;;;;;;5054756;28;20029;-71
2023/12/24 04:20:54;;;;;;;2.05;0.70;;;;;;;;;;5054591;28;20032;-71
2023/12/24 04:23:20;;;;;;;0.60;0.60;;;;;;;;;;5054910;28;20024;-71
2023/12/24 04:25:45;;;;;;;1.85;0.70;;;;;;;;;;5054773;28;20123;-71
2023/12/24 04:28:11;;;;;;;1.77;0.90;;;;;;;;;;5054792;28;20028;-71
2023/12/24 04:30:36;;;;;;;1.98;1.02;;;;;;;;;;5054487;28;20018;-71
2023/12/24 04:33:02;;;;;;;2.00;0.85;;;;;;;;;;5054720;28;20374;-71
2023/12/24 04:35:28;;;;;;;2.45;0.80;;;;;;;;;;5054314;28;20040;-71
2023/12/24 04:37:56;;;;;;;1.60;1.00;;;;;;;;;;5054497;28;20029;-71
2023/12/24 04:40:21;;;;;;;1.63;0.90;;;;;;;;;;5054542;28;20025;-71
2023/12/24 04:42:47;;;;;;;2.33;0.95;;;;;;;;;;5054570;28;20162;-70
2023/12/24 04:45:13;;;;;;;1.20;0.80;;;;;;;;;;5054504;28;20021;-71
2023/12/24 04:47:38;;;;;;;0.93;0.80;;;;;;;;;;5054107;28;20024;-71
2023/12/24 04:50:04;;;;;;;3.45;0.90;;;;;;;;;;5054145;28;20028;-71
2023/12/24 04:52:35;;;;;;;2.15;0.90;;;;;;;;;;5052962;28;20060;-71
2023/12/24 04:55:01;;;;;;;;;;;;;;;;;;5054588;28;20053;-71
2023/12/24 04:57:27;;;;;;;1.20;0.80;;;;;;;;;;5054203;28;19913;-71
2023/12/24 04:59:52;;;;;;;1.40;0.73;;;;;;;;;;5054157;28;20023;-71
2023/12/24 05:02:17;;;;;;;1.45;0.85;;;;;;;;;;5054125;28;20455;-71
2023/12/24 05:04:43;;;;;;;1.10;0.80;;;;;;;;;;5053952;28;20016;-71
2023/12/24 05:07:09;;;;;;;0.80;0.73;;;;;;;;;;5052714;28;20114;-71
2023/12/24 05:09:34;;;;;;;1.27;0.80;;;;;;;;;;5053921;28;20394;-71
2023/12/24 05:12:00;;;;;;;1.60;0.98;;;;;;;;;;5053798;28;20021;-71
2023/12/24 05:14:25;;;;;;;1.55;0.88;;;;;;;;;;5053860;28;20028;-71
2023/12/24 05:16:50;;;;;;;0.80;0.80;;;;;;;;;;5053886;28;20032;-71
2023/12/24 05:19:16;;;;;;;1.30;1.00;;;;;;;;;;5053564;28;20021;-71
2023/12/24 05:21:41;;;;;;;1.35;1.00;;;;;;;;;;5053570;28;20174;-71
2023/12/24 05:24:07;;;;;;;2.00;1.20;;;;;;;;;;5053691;28;20013;-71
2023/12/24 05:26:32;;;;;;;2.05;1.30;;;;;;;;;;5053739;28;20112;-71
2023/12/24 05:28:57;;;;;;;2.42;1.45;;;;;;;;;;5053494;28;20033;-71
2023/12/24 05:31:23;;;;;;;1.45;1.10;;;;;;;;;;5052913;28;20055;-71
2023/12/24 05:33:48;;;;;;;2.00;1.25;;;;;;;;;;5053321;28;20438;-71
2023/12/24 05:36:14;;;;;;;3.35;1.20;;;;;;;;;;5053595;28;20485;-71
2023/12/24 05:38:40;;;;;;;2.78;1.30;;;;;;;;;;5053275;28;20067;-71
2023/12/24 05:41:10;;;;;;;3.90;1.73;;;;;;;;;;5053437;28;20025;-71
2023/12/24 05:43:36;;;;;;;3.10;1.50;;;;;;;;;;5053343;28;20056;-71
2023/12/24 05:46:03;;;;;;;2.42;1.30;;;;;;;;;;5053335;28;20056;-71
2023/12/24 05:48:29;;;;;;;1.40;1.05;;;;;;;;;;5052800;28;20045;-70
2023/12/24 05:50:54;;;;;;;1.98;1.15;;;;;;;;;;5052897;28;20028;-71
2023/12/24 05:53:19;;;;;;;1.48;1.17;;;;;;;;;;5053032;28;20374;-70
2023/12/24 05:55:45;;;;;;;3.03;1.20;;;;;;;;;;5052183;28;20135;-71
2023/12/24 05:58:10;;;;;;;1.88;1.10;;;;;;;;;;5052229;28;20027;-71
2023/12/24 06:00:35;;;;;;;1.75;1.15;;;;;;;;;;5052226;28;20475;-71
2023/12/24 06:03:02;;;;;;;2.75;1.25;;;;;;;;;;5052128;28;20040;-71
2023/12/24 06:05:27;;;;;;;1.67;0.93;;;;;;;;;;5052191;28;20090;-71
2023/12/24 06:07:55;;;;;;;2.75;0.90;;;;;;;;;;5052120;28;20491;-71
2023/12/24 06:10:21;;;;;;;0.52;0.52;;;;;;;;;;5052149;28;20447;-71
2023/12/24 06:12:51;;;;;;;0.63;0.60;;;;;;;;;;5052074;28;20059;-71
2023/12/24 06:15:17;;;;;;;1.02;0.70;;;;;;;;;;5052026;28;20471;-71
2023/12/24 06:17:42;;;;;;;0.98;0.80;;;;;;;;;;5051722;28;20091;-71
2023/12/24 06:20:09;;;;;;;0.80;0.70;;;;;;;;;;5051923;28;20025;-71
2023/12/24 06:22:34;;;;;;;2.90;1.05;;;;;;;;;;5051927;28;20100;-71
2023/12/24 06:25:00;;;;;;;1.95;0.95;;;;;;;;;;5050622;28;20121;-71
2023/12/24 06:27:25;;;;;;;1.00;0.90;;;;;;;;;;5051832;28;20108;-71
2023/12/24 06:29:50;;;;;;;1.58;0.85;;;;;;;;;;5051834;28;20078;-71
2023/12/24 06:32:16;;;;;;;2.13;1.05;;;;;;;;;;5051399;28;20115;-71
2023/12/24 06:34:41;;;;;;;1.50;0.93;;;;;;;;;;5051729;28;20546;-71
2023/12/24 06:37:08;;;;;;;2.53;1.25;;;;;;;;;;5051869;28;20028;-71
2023/12/24 06:39:33;;;;;;;3.92;1.40;;;;;;;;;;5051646;28;20055;-71
2023/12/24 06:41:59;;;;;;;2.30;1.23;;;;;;;;;;5050506;28;20025;-71
2023/12/24 06:44:24;;;;;;;1.80;1.40;;;;;;;;;;5051713;28;20344;-71
2023/12/24 06:46:49;;;;;;;1.98;1.10;;;;;;;;;;5051281;28;20021;-71
2023/12/24 06:49:15;;;;;;;2.75;1.70;;;;;;;;;;5051539;28;20049;-71
2023/12/24 06:51:40;;;;;;;3.95;1.77;;;;;;;;;;5051164;28;20459;-71
2023/12/24 06:54:06;;;;;;;2.33;1.55;;;;;;;;;;4959636;28;2634272;-71
2023/12/24 06:56:31;;;;;;;3.70;1.70;;;;;;;;;;5052329;28;20045;-71
2023/12/24 06:58:56;;;;;;;2.10;1.58;;;;;;;;;;5052281;28;20033;-71
2023/12/24 07:01:22;;;;;;;2.17;1.65;;;;;;;;;;5051989;28;20390;-71
2023/12/24 07:03:47;;;;;;;5.07;1.80;;;;;;;;;;5052259;28;20029;-71
2023/12/24 07:06:12;;;;;;;2.30;1.52;;;;;;;;;;5052160;28;20075;-71
2023/12/24 07:08:38;;;;;;;3.85;1.83;;;;;;;;;;5052242;28;20429;-71
2023/12/24 07:11:04;;;;;;;1.85;1.35;;;;;;;;;;5052259;28;20035;-71
2023/12/24 07:13:30;;;;;;;1.02;0.93;;;;;;;;;;5052309;28;20112;-71
2023/12/24 08:53:05;;;;;;;2.60;1.38;;;;;;;;;;5151370;27;20378;-69
2023/12/24 08:55:30;;;;;;;3.08;1.67;;;;;;;;;;5151387;27;20095;-69
2023/12/24 08:57:56;;;;;;;1.35;1.10;;;;;;;;;;5151227;27;20022;-70
2023/12/24 09:00:21;;;;;;;2.22;1.30;;;;;;;;;;5151258;27;20023;-69
2023/12/24 09:02:47;;;;;;;2.88;1.35;;;;;;;;;;5151247;27;20365;-69
2023/12/24 09:05:12;;;;;;;1.85;1.50;;;;;;;;;;5151503;27;20019;-70
2023/12/24 09:07:38;;;;;;;2.63;1.60;;;;;;;;;;5151381;27;20398;-69
2023/12/24 09:10:04;;;;;;;2.15;1.10;;;;;;;;;;5151417;27;20023;-70
2023/12/24 09:12:30;;;;;;;2.10;1.40;;;;;;;;;;5150815;27;20035;-69
2023/12/24 09:14:55;;;;;;;2.47;1.30;;;;;;;;;;5151029;27;20031;-70
2023/12/24 09:17:21;;;;;;;2.15;1.15;;;;;;;;;;5141434;27;20136;-70
2023/12/24 09:19:46;;;;;;;3.33;1.40;;;;;;;;;;5111944;28;20028;-70
2023/12/24 09:22:12;;;;;;;1.52;1.27;;;;;;;;;;5130282;28;20035;-70
2023/12/24 09:24:37;;;;;;;2.75;1.50;;;;;;;;;;5130234;28;20027;-70
2023/12/24 09:27:03;;;;;;;1.10;1.00;;;;;;;;;;5130056;28;20023;-70
2023/12/24 09:29:29;;;;;;;2.25;1.42;;;;;;;;;;5130198;28;20106;-70
2023/12/24 09:31:54;;;;;;;2.20;1.40;;;;;;;;;;5130131;28;20027;-71
2023/12/24 09:34:20;;;;;;;2.00;1.35;;;;;;;;;;5129919;28;20042;-70
2023/12/24 09:36:45;;;;;;;2.60;1.50;;;;;;;;;;5129901;28;20092;-70
2023/12/24 09:39:11;;;;;;;1.98;1.23;;;;;;;;;;5129988;28;20027;-71
2023/12/24 09:41:37;;;;;;;4.05;1.25;;;;;;;;;;5129778;28;20063;-71
2023/12/24 09:44:04;;;;;;;2.25;1.35;;;;;;;;;;5134405;27;20015;-69
2023/12/24 09:46:30;;;;;;;1.88;1.23;;;;;;;;;;5150686;27;20061;-71
2023/12/24 09:48:55;;;;;;;1.90;1.27;;;;;;;;;;5132015;27;20067;-69
2023/12/24 09:51:23;;;;;;;2.08;1.38;;;;;;;;;;5150335;27;20393;-69
2023/12/24 09:53:49;;;;;;;2.80;1.50;;;;;;;;;;5137946;27;20034;-69
2023/12/24 09:56:15;;;;;;;1.58;1.17;;;;;;;;;;5136003;27;20102;-69
2023/12/24 09:58:41;;;;;;;2.03;1.35;;;;;;;;;;5136390;27;20027;-69
2023/12/24 10:01:07;;;;;;;4.88;1.80;;;;;;;;;;5136366;27;20107;-69
2023/12/24 10:03:33;;;;;;;3.63;1.60;;;;;;;;;;5136430;27;20046;-69
2023/12/24 10:06:03;;;;;;;3.30;1.63;;;;;;;;;;5136462;27;20034;-69
2023/12/24 10:08:29;;;;;;;;;;;;;;;;;;5136809;27;20490;-69
2023/12/24 10:10:55;;;;;;;3.22;1.58;;;;;;;;;;5135820;27;19964;-69
2023/12/24 10:13:21;;;;;;;2.72;1.85;;;;;;;;;;5136105;27;20019;-69
2023/12/24 10:16:00;;;;;;;3.03;1.70;;;;;;;;;;5136080;27;20019;-69
2023/12/24 10:18:26;;;;;;;3.47;1.90;;;;;;;;;;5135926;27;20031;-69
2023/12/24 10:21:03;;;;;;;3.58;2.08;;;;;;;;;;5135995;27;20106;-69
2023/12/24 10:23:29;;;;;;;3.05;2.17;;;;;;;;;;5135884;27;20053;-69
2023/12/24 10:26:06;;;;;;;5.00;2.78;;;;;;;;;;5135704;27;20027;-70
2023/12/24 10:28:34;;;;;;;3.80;2.30;;;;;;;;;;5134107;27;20016;-69
2023/12/24 10:31:09;;;;;;;5.78;2.33;;;;;;;;;;5113646;27;20416;-70
2023/12/24 10:33:39;;;;;;;2.85;1.95;;;;;;;;;;5135444;27;20471;-70
2023/12/24 10:36:06;;;;;;;5.77;3.03;;;;;;;;;;5135768;27;20065;-70
2023/12/24 10:38:31;;;;;;;4.40;2.22;;;;;;;;;;5135140;27;20275;-70
2023/12/24 10:40:57;;;;;;;6.05;2.45;;;;;;;;;;5135458;27;20482;-70
2023/12/24 10:43:23;;;;;;;3.65;2.55;;;;;;;;;;5135567;27;20376;-70
2023/12/24 10:45:49;;;;;;;4.25;1.98;;;;;;;;;;5135404;27;20019;-71
2023/12/24 10:48:14;;;;;;;3.15;2.35;;;;;;;;;;5135197;27;20023;-70
2023/12/24 10:50:40;;;;;;;3.88;2.40;;;;;;;;;;5134995;27;20023;-70
2023/12/24 10:53:05;;;;;;;5.45;2.90;;;;;;;;;;5134793;27;20027;-71
2023/12/24 10:55:34;;;;;;;6.00;2.58;;;;;;;;;;5135209;27;20023;-71
2023/12/24 10:58:37;;;;;;;4.00;2.33;;;;;;;;;;5135321;27;20031;-71
2023/12/24 11:01:07;;;;;;;3.83;2.70;;;;;;;;;;5135095;27;20027;-71
2023/12/24 11:03:49;;;;;;;4.28;2.50;;;;;;;;;;5134799;27;20047;-71
2023/12/24 11:06:38;;;;;;;6.57;2.63;;;;;;;;;;5134766;27;20431;-71
2023/12/24 11:09:24;;;;;;;7.40;2.88;;;;;;;;;;5119124;27;20515;-71
2023/12/24 11:11:54;;;;;;;4.78;3.03;;;;;;;;;;5117023;27;20051;-71
2023/12/24 11:14:39;;;;;;;3.47;2.60;;;;;;;;;;5134538;27;20370;-71
2023/12/24 11:17:06;;;;;;;3.75;2.63;;;;;;;;;;5134755;27;20030;-71
2023/12/24 11:19:35;;;;;;;5.75;3.08;;;;;;;;;;5134891;27;20022;-71
2023/12/24 11:22:09;;;;;;;6.47;3.78;;;;;;;;;;5134659;27;20381;-71
2023/12/24 11:24:42;;;;;;;6.53;3.85;;;;;;;;;;5134705;27;20496;-69
2023/12/24 11:27:11;;;;;;;5.80;3.42;;;;;;;;;;5134725;27;20050;-71
2023/12/24 11:29:52;;;;;;;4.43;3.13;;;;;;;;;;5134681;27;20127;-72
2023/12/24 11:32:26;;;;;;;5.85;3.75;;;;;;;;;;5134421;27;20031;-71
2023/12/24 11:34:53;;;;;;;6.90;3.40;;;;;;;;;;5134469;27;20029;-72
2023/12/24 11:37:28;;;;;;;6.25;3.80;;;;;;;;;;5115201;27;20031;-72
2023/12/24 11:40:02;;;;;;;7.47;4.10;;;;;;;;;;5134507;27;20413;-71
2023/12/24 11:42:46;;;;;;;8.15;4.68;;;;;;;;;;5128776;27;20035;-71
2023/12/24 11:45:29;;;;;;;6.90;4.22;;;;;;;;;;5133047;27;20027;-71
2023/12/24 11:47:54;;;;;;;8.43;4.05;;;;;;;;;;5133744;27;20023;-70
2023/12/24 11:50:20;;;;;;;6.28;3.97;;;;;;;;;;5119803;27;20053;-70
2023/12/24 11:52:47;;;;;;;7.45;4.15;;;;;;;;;;5111051;27;20097;-69
2023/12/24 11:55:22;;;;;;;8.63;3.78;;;;;;;;;;5117483;27;20015;-70
2023/12/24 11:57:49;;;;;;;6.63;3.67;;;;;;;;;;5132654;27;20019;-70
2023/12/24 12:00:23;;;;;;;6.95;4.00;;;;;;;;;;5134130;27;20030;-72
2023/12/24 12:02:59;;;;;;;5.72;3.75;;;;;;;;;;5133913;27;20026;-73
2023/12/24 12:05:25;;;;;;;8.65;3.70;;;;;;;;;;5132480;27;20031;-69
2023/12/24 12:07:54;;;;;;;6.72;4.00;;;;;;;;;;5113424;27;20487;-69
2023/12/24 12:10:20;;;;;;;5.43;3.42;;;;;;;;;;5131728;27;20159;-69
2023/12/24 12:12:45;;;;;;;3.85;2.33;;;;;;;;;;5131997;27;20101;-70
2023/12/24 12:15:11;;;;;;;4.47;2.38;;;;;;;;;;5131586;27;20640;-69
2023/12/24 12:17:37;;;;;;;5.22;2.20;;;;;;;;;;5131843;27;20487;-71
2023/12/24 12:20:04;;;;;;;5.03;2.00;;;;;;;;;;5132354;27;20027;-69
2023/12/24 12:22:29;;;;;;;5.75;2.13;;;;;;;;;;5133615;27;20026;-70
2023/12/24 12:24:55;;;;;;;4.03;2.40;;;;;;;;;;5133671;27;20487;-70
2023/12/24 12:27:20;;;;;;;4.07;2.30;;;;;;;;;;5133847;27;20019;-70
2023/12/24 12:29:45;;;;;;;4.00;2.30;;;;;;;;;;5133600;27;20029;-70
2023/12/24 12:32:11;;;;;;;2.75;1.35;;;;;;;;;;5133414;27;20027;-70
2023/12/24 12:34:36;;;;;;;5.43;2.28;;;;;;;;;;5133434;27;20019;-70
2023/12/24 12:37:03;;;;;;;3.70;1.95;;;;;;;;;;5116952;27;20477;-70
2023/12/24 12:39:28;;;;;;;3.15;1.50;;;;;;;;;;5126551;28;20071;-70
2023/12/24 12:41:53;;;;;;;4.50;2.00;;;;;;;;;;5100922;28;20042;-71
2023/12/24 12:44:19;;;;;;;3.55;1.65;;;;;;;;;;5129671;28;20042;-70
2023/12/24 12:46:44;;;;;;;2.10;1.30;;;;;;;;;;5132338;28;20051;-71
2023/12/24 12:49:10;;;;;;;1.63;1.10;;;;;;;;;;5132137;28;20315;-71
2023/12/24 12:51:36;;;;;;;1.75;1.10;;;;;;;;;;5132104;28;20494;-71
2023/12/24 12:54:06;;;;;;;1.30;1.00;;;;;;;;;;5132918;28;20027;-72
2023/12/24 12:56:42;;;;;;;1.83;1.00;;;;;;;;;;5126968;27;20015;-71
2023/12/24 12:59:07;;;;;;;0.88;0.73;;;;;;;;;;5123291;27;20027;-71
2023/12/24 13:01:39;;;;;;;1.67;1.00;;;;;;;;;;5132559;27;20042;-73
2023/12/24 13:04:05;;;;;;;1.33;0.88;;;;;;;;;;5115522;28;20038;-72
2023/12/24 13:06:30;;;;;;;2.13;1.30;;;;;;;;;;5127327;28;20016;-74
2023/12/24 13:09:06;;;;;;;3.28;2.30;;;;;;;;;;5121483;27;20023;-71
2023/12/24 13:11:32;;;;;;;3.80;1.70;;;;;;;;;;5118113;28;20524;-70
2023/12/24 13:14:08;;;;;;;2.35;1.45;;;;;;;;;;5129134;27;20023;-70
2023/12/24 13:16:34;;;;;;;3.17;1.38;;;;;;;;;;5118272;28;20019;-72
2023/12/24 13:19:17;;;;;;;6.47;2.00;;;;;;;;;;5132379;28;20077;-67
2023/12/24 13:21:42;;;;;;;8.02;3.08;;;;;;;;;;5132575;27;20023;-71
2023/12/24 13:24:08;;;;;;;4.47;1.88;;;;;;;;;;5115657;28;20038;-70
2023/12/24 13:26:34;;;;;;;2.10;0.80;;;;;;;;;;5132388;27;20027;-72
2023/12/24 13:29:00;;;;;;;2.88;1.35;;;;;;;;;;5135624;27;20077;-72
2023/12/24 13:31:26;;;;;;;1.88;1.15;;;;;;;;;;5122976;27;20027;-69
2023/12/24 13:33:54;;;;;;;1.60;1.20;;;;;;;;;;5132618;27;20072;-72
2023/12/24 13:36:20;;;;;;;2.72;1.10;;;;;;;;;;5119083;27;20012;-72
2023/12/24 13:38:45;;;;;;;1.00;0.90;;;;;;;;;;5123794;27;20023;-70
2023/12/24 13:41:11;;;;;;;2.15;0.90;;;;;;;;;;5124935;27;20015;-71
2023/12/24 13:43:37;;;;;;;0.80;0.80;;;;;;;;;;5130780;27;20038;-69
2023/12/24 13:46:03;;;;;;;1.42;0.80;;;;;;;;;;5136035;27;20047;-69
2023/12/24 13:48:28;;;;;;;1.92;0.90;;;;;;;;;;5136075;27;20031;-70
2023/12/24 13:50:54;;;;;;;0.90;0.80;;;;;;;;;;5126808;27;20027;-70
2023/12/24 13:53:19;;;;;;;1.63;1.10;;;;;;;;;;5109952;27;20024;-70
2023/12/24 13:55:45;;;;;;;2.03;1.00;;;;;;;;;;5119831;27;20040;-69
2023/12/24 13:58:10;;;;;;;2.08;1.10;;;;;;;;;;5132543;27;20034;-69
2023/12/24 14:00:36;;;;;;;1.83;0.73;;;;;;;;;;5135047;27;20536;-68
2023/12/24 14:03:03;;;;;;;1.15;0.80;;;;;;;;;;5135253;27;20029;-69
2023/12/24 14:05:28;;;;;;;1.35;0.80;;;;;;;;;;5135243;27;20102;-69
2023/12/24 14:07:55;;;;;;;2.00;0.80;;;;;;;;;;5135757;27;20441;-69
2023/12/24 14:10:21;;;;;;;1.75;0.93;;;;;;;;;;5135797;27;20058;-69
2023/12/24 14:12:47;;;;;;;2.63;1.40;;;;;;;;;;5135613;27;20062;-69
2023/12/24 14:15:13;;;;;;;1.08;0.98;;;;;;;;;;5135672;27;20122;-69
2023/12/24 14:17:38;;;;;;;1.25;0.80;;;;;;;;;;5134446;27;20019;-70
2023/12/24 14:20:07;;;;;;;2.38;1.02;;;;;;;;;;5126524;27;20480;-70
2023/12/24 14:22:33;;;;;;;2.60;0.90;;;;;;;;;;5113610;28;20024;-70
2023/12/24 14:24:59;;;;;;;2.75;1.20;;;;;;;;;;5114044;28;20027;-70
2023/12/24 14:27:25;;;;;;;3.30;1.00;;;;;;;;;;5114654;28;20028;-69
2023/12/24 14:29:52;;;;;;;2.22;1.00;;;;;;;;;;5114575;28;20114;-69
2023/12/24 14:32:18;;;;;;;1.30;0.82;;;;;;;;;;5114385;28;20035;-69
2023/12/24 14:34:43;;;;;;;1.40;0.70;;;;;;;;;;5115258;28;20530;-69
2023/12/24 14:37:08;;;;;;;1.65;0.90;;;;;;;;;;5115269;28;20474;-69
2023/12/24 14:39:34;;;;;;;1.80;1.15;;;;;;;;;;5115428;28;20347;-69
2023/12/24 14:41:59;;;;;;;2.05;1.42;;;;;;;;;;5115050;28;20023;-70
2023/12/24 14:44:25;;;;;;;1.50;1.00;;;;;;;;;;5101678;27;20107;-69
2023/12/24 14:46:50;;;;;;;1.85;1.08;;;;;;;;;;5135669;27;20126;-69
2023/12/24 14:49:15;;;;;;;2.60;1.42;;;;;;;;;;5148578;27;20018;-69
2023/12/24 14:51:41;;;;;;;2.17;1.13;;;;;;;;;;5135131;27;20050;-70
2023/12/24 14:54:07;;;;;;;1.98;1.02;;;;;;;;;;5149180;27;20373;-69
2023/12/24 14:56:33;;;;;;;3.03;1.48;;;;;;;;;;5155206;27;20045;-69
2023/12/24 14:59:02;;;;;;;2.08;1.20;;;;;;;;;;5135215;27;20473;-69
2023/12/24 15:01:28;;;;;;;2.30;1.60;;;;;;;;;;5135054;27;20060;-69
2023/12/24 15:03:56;;;;;;;1.85;1.00;;;;;;;;;;5135212;27;20031;-69
2023/12/24 15:06:22;;;;;;;1.67;1.10;;;;;;;;;;5135199;27;20110;-69
2023/12/24 15:08:48;;;;;;;2.65;1.10;;;;;;;;;;5135265;27;20074;-69
2023/12/24 15:11:16;;;;;;;2.42;1.00;;;;;;;;;;5135112;27;20437;-70
2023/12/24 15:13:41;;;;;;;2.83;1.10;;;;;;;;;;5135126;27;20052;-69
2023/12/24 15:16:07;;;;;;;1.63;1.05;;;;;;;;;;5134762;27;20030;-69
2023/12/24 15:18:32;;;;;;;1.45;1.20;;;;;;;;;;5134758;27;20106;-70
2023/12/24 15:20:58;;;;;;;2.63;1.33;;;;;;;;;;5134815;27;20058;-69
2023/12/24 15:23:24;;;;;;;2.28;1.40;;;;;;;;;;5134766;27;20027;-69
2023/12/24 15:25:49;;;;;;;2.50;1.15;;;;;;;;;;5134801;27;20038;-69
2023/12/24 15:28:15;;;;;;;1.40;1.08;;;;;;;;;;5134728;27;20024;-69
2023/12/24 15:30:40;;;;;;;2.28;1.17;;;;;;;;;;5134470;27;20027;-69
2023/12/24 15:33:06;;;;;;;1.98;1.17;;;;;;;;;;5134486;27;20023;-70
2023/12/24 15:35:31;;;;;;;2.05;1.40;;;;;;;;;;5134544;27;20027;-69
2023/12/24 15:37:57;;;;;;;1.75;1.35;;;;;;;;;;5134622;27;20024;-70
2023/12/24 15:40:22;;;;;;;4.10;1.95;;;;;;;;;;5134344;27;20074;-69
2023/12/24 15:42:48;;;;;;;3.13;1.20;;;;;;;;;;5134256;27;20030;-71
2023/12/24 15:45:14;;;;;;;2.05;1.83;;;;;;;;;;5134194;27;20026;-69
2023/12/24 15:47:40;;;;;;;2.25;1.48;;;;;;;;;;5134363;27;20076;-69
2023/12/24 15:50:06;;;;;;;2.05;1.55;;;;;;;;;;5133933;27;20031;-69
2023/12/24 15:52:32;;;;;;;2.17;1.48;;;;;;;;;;5133851;27;20061;-69
2023/12/24 15:55:00;;;;;;;2.45;1.52;;;;;;;;;;5134180;27;20023;-70
2023/12/24 15:57:25;;;;;;;1.48;1.13;;;;;;;;;;5134029;27;20086;-69
2023/12/24 15:59:51;;;;;;;1.85;1.40;;;;;;;;;;5134149;27;20111;-69
2023/12/24 16:02:16;;;;;;;2.42;1.42;;;;;;;;;;5134191;27;20423;-69
2023/12/24 16:04:43;;;;;;;3.03;2.00;;;;;;;;;;5134284;27;20391;-69
2023/12/24 16:07:08;;;;;;;2.45;1.33;;;;;;;;;;5133967;27;20019;-69
2023/12/24 16:09:34;;;;;;;2.95;1.60;;;;;;;;;;5134145;27;20042;-69
2023/12/24 16:11:59;;;;;;;4.32;2.20;;;;;;;;;;5133726;27;20031;-69
2023/12/24 16:14:24;;;;;;;4.95;1.60;;;;;;;;;;5134022;27;20019;-69
2023/12/24 16:16:50;;;;;;;2.80;1.75;;;;;;;;;;5133737;27;20031;-69